Lyminge, United Kingdom
Current Conditions -  °F | °C
As of 12:20 PM on Sunday 23 Nov 2014 (Local Time) from EGMD Reporting Station
Light Rain Light Rain  
Wind Chill: 50°   Ceiling: 1000
Heat Index: 50°   Visibility: 6mi
Dew Point: 50°   Wind: 16mph
Humidity: 100%   Direction: 350°N
Pressure: 29.97"   Gusts: NA
Location:  51.13°N, 1.09°E
Report Text: EGMD 231220Z 35014KT 9000 -RA FEW004 BKN010 10/10 Q1015
Loading
Personal Weather Stations






























Interactive Weather Map New forecast layout! Learn more

10-Day Weather Forecast

Advertisements
Track Severe Weather on mobile